sensor_id;sensor_type;location;lat;lon;timestamp;P1;durP1;ratioP1;P2;durP2;ratioP2
77152;SDS011;66124;51.146;17.072;2023-12-07T00:02:10;34.60;;;16.00;;
77152;SDS011;66124;51.146;17.072;2023-12-07T00:04:39;44.20;;;19.80;;
77152;SDS011;66124;51.146;17.072;2023-12-07T00:07:09;54.80;;;24.70;;
77152;SDS011;66124;51.146;17.072;2023-12-07T00:09:38;45.40;;;19.90;;
77152;SDS011;66124;51.146;17.072;2023-12-07T00:12:08;59.00;;;26.60;;
77152;SDS011;66124;51.146;17.072;2023-12-07T00:14:37;45.20;;;19.10;;
77152;SDS011;66124;51.146;17.072;2023-12-07T00:17:07;50.90;;;24.30;;
77152;SDS011;66124;51.146;17.072;2023-12-07T00:19:36;58.50;;;25.50;;
77152;SDS011;66124;51.146;17.072;2023-12-07T00:29:39;50.90;;;22.80;;
77152;SDS011;66124;51.146;17.072;2023-12-07T00:32:09;54.50;;;24.60;;
77152;SDS011;66124;51.146;17.072;2023-12-07T00:34:38;54.10;;;22.70;;
77152;SDS011;66124;51.146;17.072;2023-12-07T00:37:08;48.30;;;21.40;;
77152;SDS011;66124;51.146;17.072;2023-12-07T00:39:37;48.90;;;22.00;;
77152;SDS011;66124;51.146;17.072;2023-12-07T00:42:07;51.10;;;23.40;;
77152;SDS011;66124;51.146;17.072;2023-12-07T00:44:40;49.70;;;25.00;;
77152;SDS011;66124;51.146;17.072;2023-12-07T00:47:10;53.20;;;23.80;;
77152;SDS011;66124;51.146;17.072;2023-12-07T00:49:39;48.40;;;21.00;;
77152;SDS011;66124;51.146;17.072;2023-12-07T00:52:08;49.30;;;22.40;;
77152;SDS011;66124;51.146;17.072;2023-12-07T00:54:38;55.70;;;24.00;;
77152;SDS011;66124;51.146;17.072;2023-12-07T00:57:07;45.80;;;22.60;;
77152;SDS011;66124;51.146;17.072;2023-12-07T00:59:37;57.60;;;24.20;;
77152;SDS011;66124;51.146;17.072;2023-12-07T01:02:07;50.70;;;24.30;;
77152;SDS011;66124;51.146;17.072;2023-12-07T01:04:36;54.00;;;23.40;;
77152;SDS011;66124;51.146;17.072;2023-12-07T01:07:06;51.50;;;22.50;;
77152;SDS011;66124;51.146;17.072;2023-12-07T01:09:35;53.40;;;24.40;;
77152;SDS011;66124;51.146;17.072;2023-12-07T01:12:05;56.60;;;23.00;;
77152;SDS011;66124;51.146;17.072;2023-12-07T01:14:35;53.40;;;23.60;;
77152;SDS011;66124;51.146;17.072;2023-12-07T01:17:05;56.90;;;25.20;;
77152;SDS011;66124;51.146;17.072;2023-12-07T01:19:34;55.60;;;25.10;;
77152;SDS011;66124;51.146;17.072;2023-12-07T01:22:03;57.30;;;24.30;;
77152;SDS011;66124;51.146;17.072;2023-12-07T01:24:33;58.60;;;25.50;;
77152;SDS011;66124;51.146;17.072;2023-12-07T01:27:03;57.10;;;24.80;;
77152;SDS011;66124;51.146;17.072;2023-12-07T01:29:33;60.80;;;24.30;;
77152;SDS011;66124;51.146;17.072;2023-12-07T01:32:02;54.00;;;23.00;;
77152;SDS011;66124;51.146;17.072;2023-12-07T01:34:33;54.80;;;23.60;;
77152;SDS011;66124;51.146;17.072;2023-12-07T01:37:02;54.90;;;24.00;;
77152;SDS011;66124;51.146;17.072;2023-12-07T01:52:11;56.40;;;25.40;;
77152;SDS011;66124;51.146;17.072;2023-12-07T01:54:42;57.40;;;23.80;;
77152;SDS011;66124;51.146;17.072;2023-12-07T01:57:11;51.40;;;23.30;;
77152;SDS011;66124;51.146;17.072;2023-12-07T01:59:41;57.50;;;24.60;;
77152;SDS011;66124;51.146;17.072;2023-12-07T02:02:10;62.20;;;24.10;;
77152;SDS011;66124;51.146;17.072;2023-12-07T02:04:40;59.30;;;25.70;;
77152;SDS011;66124;51.146;17.072;2023-12-07T02:07:10;53.80;;;21.60;;
77152;SDS011;66124;51.146;17.072;2023-12-07T02:09:40;56.20;;;24.80;;
77152;SDS011;66124;51.146;17.072;2023-12-07T02:12:10;57.60;;;26.40;;
77152;SDS011;66124;51.146;17.072;2023-12-07T02:14:39;56.70;;;24.70;;
77152;SDS011;66124;51.146;17.072;2023-12-07T02:17:10;59.60;;;26.80;;
77152;SDS011;66124;51.146;17.072;2023-12-07T02:19:49;55.30;;;23.80;;
77152;SDS011;66124;51.146;17.072;2023-12-07T02:22:26;53.60;;;24.50;;
77152;SDS011;66124;51.146;17.072;2023-12-07T02:25:07;56.40;;;23.70;;
77152;SDS011;66124;51.146;17.072;2023-12-07T02:27:38;58.70;;;25.40;;
77152;SDS011;66124;51.146;17.072;2023-12-07T02:30:10;57.30;;;24.10;;
77152;SDS011;66124;51.146;17.072;2023-12-07T02:32:41;56.80;;;25.50;;
77152;SDS011;66124;51.146;17.072;2023-12-07T02:35:12;46.50;;;23.40;;
77152;SDS011;66124;51.146;17.072;2023-12-07T02:37:42;52.90;;;24.30;;
77152;SDS011;66124;51.146;17.072;2023-12-07T02:40:13;58.10;;;24.20;;
77152;SDS011;66124;51.146;17.072;2023-12-07T02:42:45;57.30;;;23.60;;
77152;SDS011;66124;51.146;17.072;2023-12-07T02:45:14;57.60;;;23.90;;
77152;SDS011;66124;51.146;17.072;2023-12-07T02:47:44;62.30;;;25.70;;
77152;SDS011;66124;51.146;17.072;2023-12-07T02:50:13;53.40;;;25.30;;
77152;SDS011;66124;51.146;17.072;2023-12-07T02:52:43;52.10;;;24.40;;
77152;SDS011;66124;51.146;17.072;2023-12-07T02:55:12;52.30;;;24.00;;
77152;SDS011;66124;51.146;17.072;2023-12-07T02:57:42;49.40;;;22.00;;
77152;SDS011;66124;51.146;17.072;2023-12-07T03:00:12;54.10;;;24.90;;
77152;SDS011;66124;51.146;17.072;2023-12-07T03:02:42;59.50;;;25.70;;
77152;SDS011;66124;51.146;17.072;2023-12-07T03:09:20;54.50;;;23.30;;
77152;SDS011;66124;51.146;17.072;2023-12-07T03:11:49;59.60;;;25.60;;
77152;SDS011;66124;51.146;17.072;2023-12-07T03:14:19;61.10;;;24.40;;
77152;SDS011;66124;51.146;17.072;2023-12-07T03:16:48;55.90;;;26.20;;
77152;SDS011;66124;51.146;17.072;2023-12-07T03:19:17;56.40;;;24.20;;
77152;SDS011;66124;51.146;17.072;2023-12-07T03:21:48;53.50;;;23.60;;
77152;SDS011;66124;51.146;17.072;2023-12-07T03:24:17;53.40;;;23.60;;
77152;SDS011;66124;51.146;17.072;2023-12-07T03:26:47;52.00;;;23.40;;
77152;SDS011;66124;51.146;17.072;2023-12-07T03:29:16;58.60;;;26.20;;
77152;SDS011;66124;51.146;17.072;2023-12-07T03:31:46;57.70;;;24.70;;
77152;SDS011;66124;51.146;17.072;2023-12-07T03:34:15;59.10;;;24.50;;
77152;SDS011;66124;51.146;17.072;2023-12-07T03:36:46;55.90;;;25.50;;
77152;SDS011;66124;51.146;17.072;2023-12-07T03:39:16;54.90;;;24.60;;
77152;SDS011;66124;51.146;17.072;2023-12-07T03:41:46;52.70;;;24.40;;
77152;SDS011;66124;51.146;17.072;2023-12-07T03:44:16;58.30;;;23.70;;
77152;SDS011;66124;51.146;17.072;2023-12-07T03:46:45;57.00;;;25.50;;
77152;SDS011;66124;51.146;17.072;2023-12-07T03:49:15;55.40;;;23.80;;
77152;SDS011;66124;51.146;17.072;2023-12-07T03:51:44;59.70;;;24.90;;
77152;SDS011;66124;51.146;17.072;2023-12-07T03:54:14;49.20;;;21.30;;
77152;SDS011;66124;51.146;17.072;2023-12-07T03:56:43;54.70;;;23.70;;
77152;SDS011;66124;51.146;17.072;2023-12-07T03:59:13;54.20;;;23.90;;
77152;SDS011;66124;51.146;17.072;2023-12-07T04:01:42;58.10;;;25.20;;
77152;SDS011;66124;51.146;17.072;2023-12-07T04:04:11;59.60;;;27.00;;
77152;SDS011;66124;51.146;17.072;2023-12-07T04:06:41;54.50;;;24.40;;
77152;SDS011;66124;51.146;17.072;2023-12-07T04:09:10;58.70;;;25.00;;
77152;SDS011;66124;51.146;17.072;2023-12-07T04:11:40;57.70;;;24.10;;
77152;SDS011;66124;51.146;17.072;2023-12-07T04:14:09;59.00;;;24.60;;
77152;SDS011;66124;51.146;17.072;2023-12-07T04:16:39;57.00;;;39.10;;
77152;SDS011;66124;51.146;17.072;2023-12-07T04:19:10;51.50;;;21.80;;
77152;SDS011;66124;51.146;17.072;2023-12-07T04:29:16;63.20;;;27.50;;
77152;SDS011;66124;51.146;17.072;2023-12-07T04:31:46;59.20;;;25.10;;
77152;SDS011;66124;51.146;17.072;2023-12-07T04:34:15;61.10;;;25.20;;
77152;SDS011;66124;51.146;17.072;2023-12-07T04:36:45;60.50;;;25.80;;
77152;SDS011;66124;51.146;17.072;2023-12-07T04:39:14;63.10;;;25.30;;
77152;SDS011;66124;51.146;17.072;2023-12-07T04:41:45;60.50;;;25.90;;
77152;SDS011;66124;51.146;17.072;2023-12-07T04:44:14;59.60;;;25.80;;
77152;SDS011;66124;51.146;17.072;2023-12-07T04:46:44;56.50;;;25.60;;
77152;SDS011;66124;51.146;17.072;2023-12-07T04:49:13;55.70;;;25.70;;
77152;SDS011;66124;51.146;17.072;2023-12-07T04:51:43;58.50;;;26.20;;
77152;SDS011;66124;51.146;17.072;2023-12-07T04:54:12;62.00;;;28.70;;
77152;SDS011;66124;51.146;17.072;2023-12-07T04:56:41;57.20;;;26.20;;
77152;SDS011;66124;51.146;17.072;2023-12-07T04:59:11;63.80;;;28.10;;
77152;SDS011;66124;51.146;17.072;2023-12-07T05:01:40;61.40;;;26.50;;
77152;SDS011;66124;51.146;17.072;2023-12-07T05:04:10;59.60;;;27.20;;
77152;SDS011;66124;51.146;17.072;2023-12-07T05:06:39;65.00;;;29.40;;
77152;SDS011;66124;51.146;17.072;2023-12-07T05:09:09;62.40;;;27.10;;
77152;SDS011;66124;51.146;17.072;2023-12-07T05:11:38;54.60;;;25.30;;
77152;SDS011;66124;51.146;17.072;2023-12-07T05:14:08;65.20;;;27.30;;
77152;SDS011;66124;51.146;17.072;2023-12-07T05:16:38;58.70;;;26.30;;
77152;SDS011;66124;51.146;17.072;2023-12-07T05:19:07;61.30;;;25.50;;
77152;SDS011;66124;51.146;17.072;2023-12-07T05:21:37;65.90;;;27.50;;
77152;SDS011;66124;51.146;17.072;2023-12-07T05:24:07;57.40;;;26.10;;
77152;SDS011;66124;51.146;17.072;2023-12-07T05:26:36;65.40;;;26.20;;
77152;SDS011;66124;51.146;17.072;2023-12-07T05:29:08;61.00;;;26.10;;
77152;SDS011;66124;51.146;17.072;2023-12-07T05:31:37;63.10;;;29.10;;
77152;SDS011;66124;51.146;17.072;2023-12-07T05:34:07;64.80;;;26.60;;
77152;SDS011;66124;51.146;17.072;2023-12-07T05:36:36;56.60;;;26.30;;
77152;SDS011;66124;51.146;17.072;2023-12-07T05:39:06;60.50;;;25.50;;
77152;SDS011;66124;51.146;17.072;2023-12-07T05:51:37;60.30;;;28.50;;
77152;SDS011;66124;51.146;17.072;2023-12-07T05:54:07;59.40;;;27.90;;
77152;SDS011;66124;51.146;17.072;2023-12-07T05:56:36;61.40;;;27.10;;
77152;SDS011;66124;51.146;17.072;2023-12-07T05:59:05;61.50;;;27.20;;
77152;SDS011;66124;51.146;17.072;2023-12-07T06:01:35;68.30;;;27.50;;
77152;SDS011;66124;51.146;17.072;2023-12-07T06:04:08;60.70;;;26.10;;
77152;SDS011;66124;51.146;17.072;2023-12-07T06:06:38;61.50;;;25.90;;
77152;SDS011;66124;51.146;17.072;2023-12-07T06:09:07;62.30;;;26.80;;
77152;SDS011;66124;51.146;17.072;2023-12-07T06:11:36;57.70;;;26.40;;
77152;SDS011;66124;51.146;17.072;2023-12-07T06:14:06;65.20;;;26.10;;
77152;SDS011;66124;51.146;17.072;2023-12-07T06:16:35;65.60;;;26.50;;
77152;SDS011;66124;51.146;17.072;2023-12-07T06:19:05;66.90;;;29.20;;
77152;SDS011;66124;51.146;17.072;2023-12-07T06:21:34;64.70;;;27.60;;
77152;SDS011;66124;51.146;17.072;2023-12-07T06:24:05;65.20;;;27.20;;
77152;SDS011;66124;51.146;17.072;2023-12-07T06:26:34;66.60;;;27.80;;
77152;SDS011;66124;51.146;17.072;2023-12-07T06:29:04;65.20;;;29.60;;
77152;SDS011;66124;51.146;17.072;2023-12-07T06:31:33;66.50;;;28.90;;
77152;SDS011;66124;51.146;17.072;2023-12-07T06:34:03;70.50;;;30.10;;
77152;SDS011;66124;51.146;17.072;2023-12-07T06:36:32;76.20;;;31.20;;
77152;SDS011;66124;51.146;17.072;2023-12-07T06:39:02;77.50;;;30.60;;
77152;SDS011;66124;51.146;17.072;2023-12-07T06:41:31;78.60;;;32.40;;
77152;SDS011;66124;51.146;17.072;2023-12-07T06:44:01;77.30;;;32.40;;
77152;SDS011;66124;51.146;17.072;2023-12-07T06:46:30;66.60;;;29.40;;
77152;SDS011;66124;51.146;17.072;2023-12-07T06:48:59;68.00;;;27.80;;
77152;SDS011;66124;51.146;17.072;2023-12-07T06:51:29;67.30;;;29.90;;
77152;SDS011;66124;51.146;17.072;2023-12-07T06:53:59;66.80;;;29.70;;
77152;SDS011;66124;51.146;17.072;2023-12-07T06:56:28;65.30;;;29.10;;
77152;SDS011;66124;51.146;17.072;2023-12-07T06:58:58;56.00;;;23.10;;
77152;SDS011;66124;51.146;17.072;2023-12-07T07:01:27;64.00;;;27.50;;
77152;SDS011;66124;51.146;17.072;2023-12-07T07:14:19;71.00;;;30.00;;
77152;SDS011;66124;51.146;17.072;2023-12-07T07:16:48;66.60;;;29.20;;
77152;SDS011;66124;51.146;17.072;2023-12-07T07:19:18;74.80;;;31.40;;
77152;SDS011;66124;51.146;17.072;2023-12-07T07:21:47;79.50;;;30.30;;
77152;SDS011;66124;51.146;17.072;2023-12-07T07:24:16;76.00;;;31.90;;
77152;SDS011;66124;51.146;17.072;2023-12-07T07:26:47;72.80;;;29.70;;
77152;SDS011;66124;51.146;17.072;2023-12-07T07:29:16;67.70;;;29.30;;
77152;SDS011;66124;51.146;17.072;2023-12-07T07:31:46;78.80;;;33.10;;
77152;SDS011;66124;51.146;17.072;2023-12-07T07:34:15;76.90;;;31.00;;
77152;SDS011;66124;51.146;17.072;2023-12-07T07:36:45;74.60;;;30.30;;
77152;SDS011;66124;51.146;17.072;2023-12-07T07:39:14;74.90;;;30.20;;
77152;SDS011;66124;51.146;17.072;2023-12-07T07:41:44;72.70;;;29.20;;
77152;SDS011;66124;51.146;17.072;2023-12-07T07:44:13;68.90;;;29.00;;
77152;SDS011;66124;51.146;17.072;2023-12-07T07:46:43;76.40;;;30.60;;
77152;SDS011;66124;51.146;17.072;2023-12-07T07:49:12;71.50;;;29.40;;
77152;SDS011;66124;51.146;17.072;2023-12-07T07:51:42;78.80;;;31.20;;
77152;SDS011;66124;51.146;17.072;2023-12-07T07:54:11;74.30;;;30.40;;
77152;SDS011;66124;51.146;17.072;2023-12-07T07:56:41;73.90;;;29.80;;
77152;SDS011;66124;51.146;17.072;2023-12-07T07:59:12;77.40;;;31.50;;
77152;SDS011;66124;51.146;17.072;2023-12-07T08:01:41;84.60;;;32.50;;
77152;SDS011;66124;51.146;17.072;2023-12-07T08:04:12;79.80;;;32.00;;
77152;SDS011;66124;51.146;17.072;2023-12-07T08:06:43;84.00;;;34.00;;
77152;SDS011;66124;51.146;17.072;2023-12-07T08:09:12;77.40;;;33.20;;
77152;SDS011;66124;51.146;17.072;2023-12-07T08:11:42;82.70;;;33.30;;
77152;SDS011;66124;51.146;17.072;2023-12-07T08:14:11;85.90;;;33.10;;
77152;SDS011;66124;51.146;17.072;2023-12-07T08:16:43;86.70;;;33.20;;
77152;SDS011;66124;51.146;17.072;2023-12-07T08:19:13;82.90;;;32.30;;
77152;SDS011;66124;51.146;17.072;2023-12-07T08:21:43;84.10;;;33.50;;
77152;SDS011;66124;51.146;17.072;2023-12-07T08:29:24;90.10;;;34.80;;
77152;SDS011;66124;51.146;17.072;2023-12-07T08:31:54;83.50;;;33.00;;
77152;SDS011;66124;51.146;17.072;2023-12-07T08:34:23;87.70;;;32.20;;
77152;SDS011;66124;51.146;17.072;2023-12-07T08:36:53;82.60;;;32.90;;
77152;SDS011;66124;51.146;17.072;2023-12-07T08:39:23;82.10;;;33.70;;
77152;SDS011;66124;51.146;17.072;2023-12-07T08:41:53;80.10;;;32.50;;
77152;SDS011;66124;51.146;17.072;2023-12-07T08:44:22;82.10;;;34.10;;
77152;SDS011;66124;51.146;17.072;2023-12-07T08:46:52;85.40;;;34.00;;
77152;SDS011;66124;51.146;17.072;2023-12-07T08:49:22;88.20;;;33.70;;
77152;SDS011;66124;51.146;17.072;2023-12-07T08:51:52;88.10;;;33.90;;
77152;SDS011;66124;51.146;17.072;2023-12-07T08:54:21;86.20;;;35.40;;
77152;SDS011;66124;51.146;17.072;2023-12-07T08:56:52;84.70;;;32.50;;
77152;SDS011;66124;51.146;17.072;2023-12-07T08:59:21;91.00;;;37.80;;
77152;SDS011;66124;51.146;17.072;2023-12-07T09:01:51;90.80;;;36.30;;
77152;SDS011;66124;51.146;17.072;2023-12-07T09:04:20;88.40;;;35.10;;
77152;SDS011;66124;51.146;17.072;2023-12-07T09:06:50;84.30;;;34.30;;
77152;SDS011;66124;51.146;17.072;2023-12-07T09:09:19;92.60;;;35.00;;
77152;SDS011;66124;51.146;17.072;2023-12-07T09:11:49;87.40;;;34.40;;
77152;SDS011;66124;51.146;17.072;2023-12-07T09:14:18;79.60;;;33.90;;
77152;SDS011;66124;51.146;17.072;2023-12-07T09:16:48;88.20;;;35.30;;
77152;SDS011;66124;51.146;17.072;2023-12-07T09:19:17;82.10;;;35.50;;
77152;SDS011;66124;51.146;17.072;2023-12-07T09:21:47;87.50;;;36.40;;
77152;SDS011;66124;51.146;17.072;2023-12-07T09:24:16;78.60;;;33.30;;
77152;SDS011;66124;51.146;17.072;2023-12-07T09:26:45;88.20;;;33.50;;
77152;SDS011;66124;51.146;17.072;2023-12-07T09:29:15;82.70;;;33.80;;
77152;SDS011;66124;51.146;17.072;2023-12-07T09:31:44;89.00;;;34.20;;
77152;SDS011;66124;51.146;17.072;2023-12-07T09:34:14;90.40;;;37.70;;
77152;SDS011;66124;51.146;17.072;2023-12-07T09:36:43;83.70;;;32.70;;
77152;SDS011;66124;51.146;17.072;2023-12-07T09:49:20;81.90;;;32.80;;
77152;SDS011;66124;51.146;17.072;2023-12-07T09:51:50;78.80;;;32.00;;
77152;SDS011;66124;51.146;17.072;2023-12-07T09:54:20;80.10;;;32.10;;
77152;SDS011;66124;51.146;17.072;2023-12-07T09:56:49;77.80;;;29.40;;
77152;SDS011;66124;51.146;17.072;2023-12-07T09:59:19;74.80;;;32.50;;
77152;SDS011;66124;51.146;17.072;2023-12-07T10:01:48;78.70;;;33.20;;
77152;SDS011;66124;51.146;17.072;2023-12-07T10:04:19;70.50;;;30.30;;
77152;SDS011;66124;51.146;17.072;2023-12-07T10:06:50;62.60;;;25.60;;
77152;SDS011;66124;51.146;17.072;2023-12-07T10:09:19;68.80;;;28.20;;
77152;SDS011;66124;51.146;17.072;2023-12-07T10:11:49;75.20;;;28.30;;
77152;SDS011;66124;51.146;17.072;2023-12-07T10:14:30;66.40;;;27.80;;
77152;SDS011;66124;51.146;17.072;2023-12-07T10:17:00;69.00;;;27.30;;
77152;SDS011;66124;51.146;17.072;2023-12-07T10:19:30;74.70;;;28.50;;
77152;SDS011;66124;51.146;17.072;2023-12-07T10:22:00;63.70;;;25.70;;
77152;SDS011;66124;51.146;17.072;2023-12-07T10:24:40;69.20;;;27.20;;
77152;SDS011;66124;51.146;17.072;2023-12-07T10:27:10;69.10;;;26.20;;
77152;SDS011;66124;51.146;17.072;2023-12-07T10:29:40;65.70;;;27.70;;
77152;SDS011;66124;51.146;17.072;2023-12-07T10:32:11;66.30;;;26.40;;
77152;SDS011;66124;51.146;17.072;2023-12-07T10:34:41;62.40;;;26.20;;
77152;SDS011;66124;51.146;17.072;2023-12-07T10:37:10;62.90;;;26.20;;
77152;SDS011;66124;51.146;17.072;2023-12-07T10:39:40;59.00;;;25.50;;
77152;SDS011;66124;51.146;17.072;2023-12-07T10:42:10;69.10;;;28.60;;
77152;SDS011;66124;51.146;17.072;2023-12-07T10:44:42;70.40;;;27.30;;
77152;SDS011;66124;51.146;17.072;2023-12-07T10:47:13;61.60;;;24.90;;
77152;SDS011;66124;51.146;17.072;2023-12-07T10:49:44;54.30;;;23.60;;
77152;SDS011;66124;51.146;17.072;2023-12-07T10:52:20;66.90;;;26.90;;
77152;SDS011;66124;51.146;17.072;2023-12-07T10:54:56;67.60;;;26.20;;
77152;SDS011;66124;51.146;17.072;2023-12-07T10:57:30;57.90;;;22.40;;
77152;SDS011;66124;51.146;17.072;2023-12-07T11:05:14;70.20;;;27.50;;
77152;SDS011;66124;51.146;17.072;2023-12-07T11:07:45;65.90;;;25.90;;
77152;SDS011;66124;51.146;17.072;2023-12-07T11:10:23;68.90;;;25.90;;
77152;SDS011;66124;51.146;17.072;2023-12-07T11:13:00;73.10;;;28.50;;
77152;SDS011;66124;51.146;17.072;2023-12-07T11:15:36;73.40;;;25.60;;
77152;SDS011;66124;51.146;17.072;2023-12-07T11:18:07;66.20;;;24.40;;
77152;SDS011;66124;51.146;17.072;2023-12-07T11:20:41;65.80;;;25.00;;
77152;SDS011;66124;51.146;17.072;2023-12-07T11:23:12;67.30;;;22.70;;
77152;SDS011;66124;51.146;17.072;2023-12-07T11:25:45;60.30;;;24.20;;
77152;SDS011;66124;51.146;17.072;2023-12-07T11:28:16;63.70;;;21.60;;
77152;SDS011;66124;51.146;17.072;2023-12-07T11:30:46;70.20;;;25.70;;
77152;SDS011;66124;51.146;17.072;2023-12-07T11:33:15;58.30;;;21.50;;
77152;SDS011;66124;51.146;17.072;2023-12-07T11:38:34;67.30;;;24.20;;
77152;SDS011;66124;51.146;17.072;2023-12-07T11:41:05;78.70;;;27.50;;
77152;SDS011;66124;51.146;17.072;2023-12-07T11:43:40;76.20;;;25.20;;
77152;SDS011;66124;51.146;17.072;2023-12-07T11:46:10;64.50;;;24.30;;
77152;SDS011;66124;51.146;17.072;2023-12-07T11:48:40;70.30;;;24.80;;
77152;SDS011;66124;51.146;17.072;2023-12-07T11:51:15;69.50;;;23.60;;
77152;SDS011;66124;51.146;17.072;2023-12-07T11:53:45;65.90;;;24.10;;
77152;SDS011;66124;51.146;17.072;2023-12-07T11:56:15;61.70;;;21.70;;
77152;SDS011;66124;51.146;17.072;2023-12-07T11:58:45;59.70;;;21.30;;
77152;SDS011;66124;51.146;17.072;2023-12-07T12:01:15;52.10;;;21.70;;
77152;SDS011;66124;51.146;17.072;2023-12-07T12:03:45;54.20;;;20.40;;
77152;SDS011;66124;51.146;17.072;2023-12-07T12:06:15;60.70;;;21.70;;
77152;SDS011;66124;51.146;17.072;2023-12-07T12:08:44;57.80;;;22.40;;
77152;SDS011;66124;51.146;17.072;2023-12-07T12:11:14;56.30;;;21.30;;
77152;SDS011;66124;51.146;17.072;2023-12-07T12:13:44;61.70;;;22.40;;
77152;SDS011;66124;51.146;17.072;2023-12-07T12:21:37;61.20;;;23.70;;
77152;SDS011;66124;51.146;17.072;2023-12-07T12:24:07;57.40;;;21.70;;
77152;SDS011;66124;51.146;17.072;2023-12-07T12:26:37;62.80;;;23.40;;
77152;SDS011;66124;51.146;17.072;2023-12-07T12:29:09;61.90;;;22.20;;
77152;SDS011;66124;51.146;17.072;2023-12-07T12:31:39;45.20;;;18.80;;
77152;SDS011;66124;51.146;17.072;2023-12-07T12:34:08;56.30;;;18.70;;
77152;SDS011;66124;51.146;17.072;2023-12-07T12:36:39;56.60;;;22.20;;
77152;SDS011;66124;51.146;17.072;2023-12-07T12:39:09;55.50;;;21.90;;
77152;SDS011;66124;51.146;17.072;2023-12-07T12:41:39;58.20;;;22.60;;
77152;SDS011;66124;51.146;17.072;2023-12-07T12:44:09;50.30;;;20.10;;
77152;SDS011;66124;51.146;17.072;2023-12-07T12:46:39;67.80;;;23.40;;
77152;SDS011;66124;51.146;17.072;2023-12-07T12:49:08;59.80;;;23.90;;
77152;SDS011;66124;51.146;17.072;2023-12-07T12:51:38;58.10;;;22.90;;
77152;SDS011;66124;51.146;17.072;2023-12-07T12:54:07;60.40;;;24.10;;
77152;SDS011;66124;51.146;17.072;2023-12-07T12:56:37;60.10;;;21.70;;
77152;SDS011;66124;51.146;17.072;2023-12-07T12:59:06;62.30;;;23.40;;
77152;SDS011;66124;51.146;17.072;2023-12-07T13:01:36;47.10;;;18.40;;
77152;SDS011;66124;51.146;17.072;2023-12-07T13:04:06;46.00;;;17.20;;
77152;SDS011;66124;51.146;17.072;2023-12-07T13:06:39;53.60;;;21.20;;
77152;SDS011;66124;51.146;17.072;2023-12-07T13:09:09;57.30;;;22.70;;
77152;SDS011;66124;51.146;17.072;2023-12-07T13:11:38;54.30;;;20.80;;
77152;SDS011;66124;51.146;17.072;2023-12-07T13:14:07;56.40;;;21.30;;
77152;SDS011;66124;51.146;17.072;2023-12-07T13:16:37;56.50;;;21.10;;
77152;SDS011;66124;51.146;17.072;2023-12-07T13:19:06;54.50;;;21.00;;
77152;SDS011;66124;51.146;17.072;2023-12-07T13:21:36;48.80;;;19.40;;
77152;SDS011;66124;51.146;17.072;2023-12-07T13:24:06;45.70;;;17.30;;
77152;SDS011;66124;51.146;17.072;2023-12-07T13:26:35;36.70;;;14.60;;
77152;SDS011;66124;51.146;17.072;2023-12-07T13:29:05;51.30;;;18.70;;
77152;SDS011;66124;51.146;17.072;2023-12-07T13:41:40;49.40;;;19.90;;
77152;SDS011;66124;51.146;17.072;2023-12-07T13:44:10;44.90;;;18.40;;
77152;SDS011;66124;51.146;17.072;2023-12-07T13:46:40;48.50;;;18.70;;
77152;SDS011;66124;51.146;17.072;2023-12-07T13:49:11;42.50;;;18.20;;
77152;SDS011;66124;51.146;17.072;2023-12-07T13:51:40;44.70;;;18.50;;
77152;SDS011;66124;51.146;17.072;2023-12-07T13:54:10;50.30;;;20.20;;
77152;SDS011;66124;51.146;17.072;2023-12-07T13:56:39;47.00;;;20.10;;
77152;SDS011;66124;51.146;17.072;2023-12-07T13:59:09;48.90;;;19.20;;
77152;SDS011;66124;51.146;17.072;2023-12-07T14:01:38;48.40;;;20.00;;
77152;SDS011;66124;51.146;17.072;2023-12-07T14:04:08;50.60;;;19.40;;
77152;SDS011;66124;51.146;17.072;2023-12-07T14:06:37;46.70;;;19.30;;
77152;SDS011;66124;51.146;17.072;2023-12-07T14:09:07;51.20;;;20.10;;
77152;SDS011;66124;51.146;17.072;2023-12-07T14:11:36;47.00;;;19.20;;
77152;SDS011;66124;51.146;17.072;2023-12-07T14:14:06;54.50;;;21.00;;
77152;SDS011;66124;51.146;17.072;2023-12-07T14:16:35;53.00;;;19.70;;
77152;SDS011;66124;51.146;17.072;2023-12-07T14:19:05;50.60;;;20.60;;
77152;SDS011;66124;51.146;17.072;2023-12-07T14:21:36;55.20;;;20.90;;
77152;SDS011;66124;51.146;17.072;2023-12-07T14:24:06;49.70;;;19.40;;
77152;SDS011;66124;51.146;17.072;2023-12-07T14:26:36;48.90;;;20.60;;
77152;SDS011;66124;51.146;17.072;2023-12-07T14:29:05;49.60;;;20.80;;
77152;SDS011;66124;51.146;17.072;2023-12-07T14:31:35;51.40;;;19.30;;
77152;SDS011;66124;51.146;17.072;2023-12-07T14:34:04;53.20;;;19.90;;
77152;SDS011;66124;51.146;17.072;2023-12-07T14:36:33;57.20;;;22.40;;
77152;SDS011;66124;51.146;17.072;2023-12-07T14:39:03;50.00;;;21.90;;
77152;SDS011;66124;51.146;17.072;2023-12-07T14:41:33;54.20;;;22.30;;
77152;SDS011;66124;51.146;17.072;2023-12-07T14:44:02;50.90;;;20.10;;
77152;SDS011;66124;51.146;17.072;2023-12-07T14:46:32;55.70;;;21.10;;
77152;SDS011;66124;51.146;17.072;2023-12-07T14:49:01;55.90;;;21.70;;
77152;SDS011;66124;51.146;17.072;2023-12-07T14:51:31;54.70;;;20.80;;
77152;SDS011;66124;51.146;17.072;2023-12-07T14:59:32;53.60;;;21.80;;
77152;SDS011;66124;51.146;17.072;2023-12-07T15:02:02;56.30;;;22.70;;
77152;SDS011;66124;51.146;17.072;2023-12-07T15:04:32;54.90;;;24.20;;
77152;SDS011;66124;51.146;17.072;2023-12-07T15:07:01;50.20;;;21.70;;
77152;SDS011;66124;51.146;17.072;2023-12-07T15:09:32;53.90;;;21.70;;
77152;SDS011;66124;51.146;17.072;2023-12-07T15:12:02;52.20;;;22.50;;
77152;SDS011;66124;51.146;17.072;2023-12-07T15:14:32;56.60;;;22.30;;
77152;SDS011;66124;51.146;17.072;2023-12-07T15:17:03;58.60;;;24.70;;
77152;SDS011;66124;51.146;17.072;2023-12-07T15:19:34;53.70;;;22.30;;
77152;SDS011;66124;51.146;17.072;2023-12-07T15:22:04;52.80;;;23.00;;
77152;SDS011;66124;51.146;17.072;2023-12-07T15:24:34;55.50;;;24.50;;
77152;SDS011;66124;51.146;17.072;2023-12-07T15:27:04;59.40;;;27.90;;
77152;SDS011;66124;51.146;17.072;2023-12-07T15:29:34;65.30;;;29.20;;
77152;SDS011;66124;51.146;17.072;2023-12-07T15:32:04;62.40;;;28.10;;
77152;SDS011;66124;51.146;17.072;2023-12-07T15:37:03;54.60;;;23.40;;
77152;SDS011;66124;51.146;17.072;2023-12-07T15:39:33;53.20;;;24.40;;
77152;SDS011;66124;51.146;17.072;2023-12-07T15:42:02;58.40;;;25.80;;
77152;SDS011;66124;51.146;17.072;2023-12-07T15:44:32;54.70;;;25.20;;
77152;SDS011;66124;51.146;17.072;2023-12-07T15:47:02;60.40;;;25.60;;
77152;SDS011;66124;51.146;17.072;2023-12-07T15:49:31;63.00;;;24.80;;
77152;SDS011;66124;51.146;17.072;2023-12-07T15:52:01;55.30;;;24.00;;
77152;SDS011;66124;51.146;17.072;2023-12-07T15:54:31;50.10;;;20.10;;
77152;SDS011;66124;51.146;17.072;2023-12-07T15:57:00;50.60;;;20.90;;
77152;SDS011;66124;51.146;17.072;2023-12-07T15:59:30;48.80;;;20.80;;
77152;SDS011;66124;51.146;17.072;2023-12-07T16:01:59;53.70;;;21.90;;
77152;SDS011;66124;51.146;17.072;2023-12-07T16:04:28;47.80;;;21.40;;